Time;durP1;ratioP1;P1;durP2;ratioP2;P2;SDS_P1;SDS_P2;PMS_P1;PMS_P2;Temp;Humidity;BMP_temperature;BMP_pressure;BME280_temperature;BME280_humidity;BME280_pressure;Samples;Min_cycle;Max_cycle;Signal;HPM_P1;HPM_P2
2022/06/14 00:03:00;;;;;;;;;;;;;;;;;;5077018;28;20382;-43
2022/06/14 00:05:25;;;;;;;;;;;;;;;;;;5076681;28;19909;-41
2022/06/14 00:07:50;;;;;;;;;;;;;;;;;;5076471;28;19909;-41
2022/06/14 00:10:15;;;;;;;;;;;;;;;;;;5076504;28;20321;-41
2022/06/14 00:12:40;;;;;;;;;;;;;;;;;;5076641;28;19958;-42
2022/06/14 00:15:06;;;;;;;;;;;;;;;;;;5076496;28;19908;-41
2022/06/14 00:17:32;;;;;;;;;;;;;;;;;;5076348;28;19914;-41
2022/06/14 00:19:57;;;;;;;;;;;;;;;;;;5076454;28;19909;-41
2022/06/14 00:22:22;;;;;;;;;;;;;;;;;;5077016;28;20363;-41
2022/06/14 00:24:47;;;;;;;;;;;;;;;;;;5076518;28;19909;-41
2022/06/14 00:27:13;;;;;;;;;;;;;;;;;;5076442;28;19908;-41
2022/06/14 00:29:38;;;;;;;;;;;;;;;;;;5076011;28;19919;-42
2022/06/14 00:32:03;;;;;;;;;;;;;;;;;;5076359;28;19931;-41
2022/06/14 00:34:28;;;;;;;;;;;;;;;;;;5076490;28;19987;-41
2022/06/14 00:36:53;;;;;;;;;;;;;;;;;;5076164;28;20039;-41
2022/06/14 00:39:19;;;;;;;;;;;;;;;;;;5075995;28;19915;-41
2022/06/14 00:41:44;;;;;;;;;;;;;;;;;;5076368;28;20359;-41
2022/06/14 00:44:10;;;;;;;;;;;;;;;;;;5076538;28;19912;-41
2022/06/14 00:46:37;;;;;;;;;;;;;;;;;;5076596;28;19904;-42
2022/06/14 00:49:02;;;;;;;;;;;;;;;;;;5076373;28;19909;-41
2022/06/14 00:51:27;;;;;;;;;;;;;;;;;;5076011;28;20018;-41
2022/06/14 00:53:52;;;;;;;;;;;;;;;;;;5074574;28;19916;-41
2022/06/14 00:56:18;;;;;;;;;;;;;;;;;;5077467;28;19933;-41
2022/06/14 00:58:44;;;;;;;;;;;;;;;;;;5076184;28;19909;-42
2022/06/14 01:01:10;;;;;;;;;;;;;;;;;;5076064;28;19915;-41
2022/06/14 01:03:38;;;;;;;;;;;;;;;;;;5075974;28;19908;-41
2022/06/14 01:06:07;;;;;;;;;;;;;;;;;;5076028;28;20375;-41
2022/06/14 01:08:32;;;;;;;;;;;;;;;;;;5076138;28;19995;-40
2022/06/14 01:10:57;;;;;;;;;;;;;;;;;;5076294;28;20396;-41
2022/06/14 01:13:23;;;;;;;;;;;;;;;;;;5076122;28;19916;-41
2022/06/14 01:15:48;;;;;;;;;;;;;;;;;;5076138;28;19909;-40
2022/06/14 01:18:13;;;;;;;;;;;;;;;;;;5076896;28;19912;-41
2022/06/14 01:20:42;;;;;;;;;;;;;;;;;;5076715;28;20461;-43
2022/06/14 01:23:08;;;;;;;;;;;;;;;;;;5076426;28;19913;-42
2022/06/14 01:25:33;;;;;;;;;;;;;;;;;;5076332;28;19915;-41
2022/06/14 01:28:00;;;;;;;;;;;;;;;;;;5076305;28;19995;-41
2022/06/14 01:30:26;;;;;;;;;;;;;;;;;;5075869;28;19913;-41
2022/06/14 01:32:51;;;;;;;;;;;;;;;;;;5075921;28;19953;-40
2022/06/14 01:35:17;;;;;;;;;;;;;;;;;;5075923;28;19913;-41
2022/06/14 01:37:45;;;;;;;;;;;;;;;;;;5075572;28;19935;-41
2022/06/14 01:40:11;;;;;;;;;;;;;;;;;;5075871;28;20243;-40
2022/06/14 01:42:36;;;;;;;;;;;;;;;;;;5075929;28;20374;-41
2022/06/14 01:45:01;;;;;;;;;;;;;;;;;;5075756;28;19909;-41
2022/06/14 01:47:27;;;;;;;;;;;;;;;;;;5075999;28;19913;-40
2022/06/14 01:52:36;;;;;;;;;;;;;;;;;;5075934;28;19962;-41
2022/06/14 01:55:01;;;;;;;;;;;;;;;;;;5075554;28;19924;-40
2022/06/14 01:57:27;;;;;;;;;;;;;;;;;;5075972;28;19935;-40
2022/06/14 01:59:52;;;;;;;;;;;;;;;;;;5075722;28;19909;-40
2022/06/14 02:02:19;;;;;;;;;;;;;;;;;;5076355;28;19909;-41
2022/06/14 02:04:45;;;;;;;;;;;;;;;;;;5079785;28;19962;-41
2022/06/14 02:07:10;;;;;;;;;;;;;;;;;;5079622;28;19916;-41
2022/06/14 02:09:35;;;;;;;;;;;;;;;;;;5080226;28;19912;-40
2022/06/14 02:12:00;;;;;;;;;;;;;;;;;;5079406;28;20011;-42
2022/06/14 02:14:26;;;;;;;;;;;;;;;;;;5079386;28;19958;-40
2022/06/14 02:16:51;;;;;;;;;;;;;;;;;;5079214;28;19919;-40
2022/06/14 02:19:18;;;;;;;;;;;;;;;;;;5079192;28;20294;-40
2022/06/14 02:21:43;;;;;;;;;;;;;;;;;;5079376;28;19908;-40
2022/06/14 02:24:09;;;;;;;;;;;;;;;;;;5079328;28;20263;-42
2022/06/14 02:26:34;;;;;;;;;;;;;;;;;;5079668;28;19908;-40
2022/06/14 02:28:59;;;;;;;;;;;;;;;;;;5078889;28;20355;-41
2022/06/14 02:31:24;;;;;;;;;;;;;;;;;;5079052;28;19909;-41
2022/06/14 02:33:51;;;;;;;;;;;;;;;;;;5079229;28;20274;-41
2022/06/14 02:36:18;;;;;;;;;;;;;;;;;;5078578;28;20359;-41
2022/06/14 02:38:44;;;;;;;;;;;;;;;;;;5078741;28;20356;-40
2022/06/14 02:41:09;;;;;;;;;;;;;;;;;;5078840;28;19943;-40
2022/06/14 02:43:36;;;;;;;;;;;;;;;;;;5078972;28;19916;-40
2022/06/14 02:46:01;;;;;;;;;;;;;;;;;;5078605;28;19916;-41
2022/06/14 02:48:26;;;;;;;;;;;;;;;;;;5078933;28;19913;-42
2022/06/14 02:50:51;;;;;;;;;;;;;;;;;;5078755;28;19913;-42
2022/06/14 02:53:20;;;;;;;;;;;;;;;;;;5078816;28;19912;-40
2022/06/14 02:55:46;;;;;;;;;;;;;;;;;;5078296;28;19928;-41
2022/06/14 02:58:11;;;;;;;;;;;;;;;;;;5078843;28;19909;-40
2022/06/14 03:00:39;;;;;;;;;;;;;;;;;;5078855;28;19916;-40
2022/06/14 03:03:06;;;;;;;;;;;;;;;;;;5078600;28;19930;-41
2022/06/14 03:05:32;;;;;;;;;;;;;;;;;;5078847;28;19909;-41
2022/06/14 03:07:58;;;;;;;;;;;;;;;;;;5078292;28;19952;-40
2022/06/14 03:10:24;;;;;;;;;;;;;;;;;;5078274;28;20005;-41
2022/06/14 03:12:49;;;;;;;;;;;;;;;;;;5076892;28;20398;-41
2022/06/14 03:15:15;;;;;;;;;;;;;;;;;;5078466;28;19940;-40
2022/06/14 03:17:44;;;;;;;;;;;;;;;;;;5078158;28;19912;-41
2022/06/14 03:20:09;;;;;;;;;;;;;;;;;;5076970;28;19917;-40
2022/06/14 03:22:35;;;;;;;;;;;;;;;;;;5077966;28;20008;-41
2022/06/14 03:25:00;;;;;;;;;;;;;;;;;;5078555;28;19919;-40
2022/06/14 03:27:25;;;;;;;;;;;;;;;;;;5078526;28;20007;-40
2022/06/14 03:29:51;;;;;;;;;;;;;;;;;;5077871;28;19912;-40
2022/06/14 03:32:16;;;;;;;;;;;;;;;;;;5078192;28;19909;-40
2022/06/14 03:34:42;;;;;;;;;;;;;;;;;;5078205;28;19955;-40
2022/06/14 03:37:07;;;;;;;;;;;;;;;;;;5077666;28;20363;-40
2022/06/14 03:39:32;;;;;;;;;;;;;;;;;;5077738;28;19908;-41
2022/06/14 03:41:58;;;;;;;;;;;;;;;;;;5077779;28;19915;-41
2022/06/14 03:44:23;;;;;;;;;;;;;;;;;;5077678;28;19915;-41
2022/06/14 03:46:48;;;;;;;;;;;;;;;;;;5077934;28;19912;-40
2022/06/14 03:49:14;;;;;;;;;;;;;;;;;;5077732;28;19930;-41
2022/06/14 03:51:40;;;;;;;;;;;;;;;;;;5078028;28;20416;-41
2022/06/14 03:54:08;;;;;;;;;;;;;;;;;;5078444;28;19991;-41
2022/06/14 03:56:33;;;;;;;;;;;;;;;;;;5077738;28;20278;-40
2022/06/14 03:58:59;;;;;;;;;;;;;;;;;;5077903;28;19909;-41
2022/06/14 04:01:24;;;;;;;;;;;;;;;;;;5078076;28;19948;-40
2022/06/14 04:03:49;;;;;;;;;;;;;;;;;;5077552;28;19916;-40
2022/06/14 04:06:14;;;;;;;;;;;;;;;;;;5077531;28;19909;-41
2022/06/14 04:08:39;;;;;;;;;;;;;;;;;;5077202;28;20294;-41
2022/06/14 04:11:07;;;;;;;;;;;;;;;;;;5077119;28;20367;-40
2022/06/14 04:13:32;;;;;;;;;;;;;;;;;;5078196;28;19909;-41
2022/06/14 04:16:00;;;;;;;;;;;;;;;;;;5077193;28;19916;-41
2022/06/14 04:18:40;;;;;;;;;;;;;;;;;;5077125;28;19972;-40
2022/06/14 04:21:05;;;;;;;;;;;;;;;;;;5076726;28;19954;-41
2022/06/14 04:23:30;;;;;;;;;;;;;;;;;;5076905;28;19908;-40
2022/06/14 04:25:55;;;;;;;;;;;;;;;;;;5076718;28;20397;-41
2022/06/14 04:28:20;;;;;;;;;;;;;;;;;;5077013;28;19915;-41
2022/06/14 04:30:46;;;;;;;;;;;;;;;;;;5076791;28;20031;-40
2022/06/14 04:33:11;;;;;;;;;;;;;;;;;;5077156;28;19908;-40
2022/06/14 04:35:38;;;;;;;;;;;;;;;;;;5076694;28;20024;-41
2022/06/14 04:38:04;;;;;;;;;;;;;;;;;;5077130;28;19908;-41
2022/06/14 04:40:30;;;;;;;;;;;;;;;;;;5076678;28;20117;-41
2022/06/14 04:42:56;;;;;;;;;;;;;;;;;;5075868;28;19909;-40
2022/06/14 04:45:21;;;;;;;;;;;;;;;;;;5076669;28;19916;-41
2022/06/14 04:47:46;;;;;;;;;;;;;;;;;;5076494;28;19975;-41
2022/06/14 04:50:11;;;;;;;;;;;;;;;;;;5076360;28;19912;-41
2022/06/14 04:52:39;;;;;;;;;;;;;;;;;;5076338;28;19908;-41
2022/06/14 04:55:05;;;;;;;;;;;;;;;;;;5076311;28;19963;-41
2022/06/14 04:57:32;;;;;;;;;;;;;;;;;;5076112;28;19916;-40
2022/06/14 04:59:58;;;;;;;;;;;;;;;;;;5076378;28;19909;-41
2022/06/14 05:02:26;;;;;;;;;;;;;;;;;;5076004;28;19909;-40
2022/06/14 05:04:51;;;;;;;;;;;;;;;;;;5076155;28;19947;-40
2022/06/14 05:07:16;;;;;;;;;;;;;;;;;;5077636;28;20363;-41
2022/06/14 05:09:42;;;;;;;;;;;;;;;;;;5076266;28;19912;-41
2022/06/14 05:12:10;;;;;;;;;;;;;;;;;;5076202;28;19913;-41
2022/06/14 05:14:35;;;;;;;;;;;;;;;;;;5076133;28;20338;-41
2022/06/14 05:17:00;;;;;;;;;;;;;;;;;;5075828;28;19931;-42
2022/06/14 05:19:25;;;;;;;;;;;;;;;;;;5076150;28;19919;-41
2022/06/14 05:21:51;;;;;;;;;;;;;;;;;;5074581;28;19912;-40
2022/06/14 05:24:19;;;;;;;;;;;;;;;;;;5065543;28;19917;-41
2022/06/14 05:26:47;;;;;;;;;;;;;;;;;;5061151;28;19936;-46
2022/06/14 05:29:12;;;;;;;;;;;;;;;;;;5070773;28;19920;-45
2022/06/14 05:31:37;;;;;;;;;;;;;;;;;;5071720;28;19965;-45
2022/06/14 05:34:02;;;;;;;;;;;;;;;;;;5067226;28;19917;-47
2022/06/14 05:36:27;;;;;;;;;;;;;;;;;;5077238;28;19908;-44
2022/06/14 05:38:52;;;;;;;;;;;;;;;;;;5078272;28;19920;-44
2022/06/14 05:41:18;;;;;;;;;;;;;;;;;;5080412;28;19916;-44
2022/06/14 05:43:46;;;;;;;;;;;;;;;;;;5076959;28;19915;-46
2022/06/14 05:46:12;;;;;;;;;;;;;;;;;;5070048;28;19920;-46
2022/06/14 05:48:37;;;;;;;;;;;;;;;;;;5067978;28;19955;-44
2022/06/14 05:51:02;;;;;;;;;;;;;;;;;;5071686;28;19964;-46
2022/06/14 05:53:27;;;;;;;;;;;;;;;;;;5072114;28;19980;-45
2022/06/14 05:55:53;;;;;;;;;;;;;;;;;;5063075;28;20715;-46
2022/06/14 05:58:18;;;;;;;;;;;;;;;;;;5066950;28;19920;-46
2022/06/14 06:00:43;;;;;;;;;;;;;;;;;;5065605;28;19936;-45
2022/06/14 06:03:08;;;;;;;;;;;;;;;;;;5054266;28;19921;-45
2022/06/14 06:05:33;;;;;;;;;;;;;;;;;;5026087;28;19921;-45
2022/06/14 06:07:58;;;;;;;;;;;;;;;;;;5041397;28;19924;-45
2022/06/14 06:10:23;;;;;;;;;;;;;;;;;;5039511;28;20013;-45
2022/06/14 06:12:49;;;;;;;;;;;;;;;;;;5038159;28;19986;-45
2022/06/14 06:15:14;;;;;;;;;;;;;;;;;;5016049;28;19927;-45
2022/06/14 06:17:39;;;;;;;;;;;;;;;;;;4967024;28;20329;-45
2022/06/14 06:20:04;;;;;;;;;;;;;;;;;;4943790;28;20658;-45
2022/06/14 06:22:29;;;;;;;;;;;;;;;;;;4876081;28;21775;-45
2022/06/14 06:24:54;;;;;;;;;;;;;;;;;;4850359;28;19955;-45
2022/06/14 06:27:19;;;;;;;;;;;;;;;;;;4727768;28;27786;-46
2022/06/14 06:29:45;;;;;;;;;;;;;;;;;;4633358;28;26990;-46
2022/06/14 06:32:10;;;;;;;;;;;;;;;;;;4723338;28;20822;-45
2022/06/14 06:34:35;;;;;;;;;;;;;;;;;;4801943;28;23595;-45
2022/06/14 06:37:00;;;;;;;;;;;;;;;;;;4884479;28;21445;-45
2022/06/14 06:39:25;;;;;;;;;;;;;;;;;;4861099;28;19931;-47
2022/06/14 06:41:50;;;;;;;;;;;;;;;;;;4884551;28;20792;-45
2022/06/14 06:44:16;;;;;;;;;;;;;;;;;;4861132;28;20605;-45
2022/06/14 06:46:41;;;;;;;;;;;;;;;;;;4891989;28;20062;-46
2022/06/14 06:49:06;;;;;;;;;;;;;;;;;;4897524;28;20976;-46
2022/06/14 06:51:35;;;;;;;;;;;;;;;;;;4886989;28;21626;-46
2022/06/14 06:56:27;;;;;;;;;;;;;;;;;;4903828;28;20574;-47
2022/06/14 06:58:52;;;;;;;;;;;;;;;;;;4906420;28;24824;-46
2022/06/14 07:01:18;;;;;;;;;;;;;;;;;;4855140;28;26999;-46
2022/06/14 07:03:43;;;;;;;;;;;;;;;;;;4836738;28;22296;-46
2022/06/14 07:06:08;;;;;;;;;;;;;;;;;;4829411;28;24276;-45
2022/06/14 07:08:33;;;;;;;;;;;;;;;;;;4833294;28;19984;-44
2022/06/14 07:10:58;;;;;;;;;;;;;;;;;;4779147;28;20797;-44
2022/06/14 07:13:24;;;;;;;;;;;;;;;;;;4723517;28;22994;-47
2022/06/14 07:15:49;;;;;;;;;;;;;;;;;;4638894;28;38714;-47
2022/06/14 07:18:14;;;;;;;;;;;;;;;;;;4596141;28;25030;-46
2022/06/14 07:20:39;;;;;;;;;;;;;;;;;;4430134;28;30728;-46
2022/06/14 07:23:04;;;;;;;;;;;;;;;;;;4378425;28;23340;-45
2022/06/14 07:25:30;;;;;;;;;;;;;;;;;;4571033;28;38609;-46
2022/06/14 07:27:55;;;;;;;;;;;;;;;;;;4664778;28;33153;-46
2022/06/14 07:30:20;;;;;;;;;;;;;;;;;;4674009;28;35573;-46
2022/06/14 07:32:46;;;;;;;;;;;;;;;;;;4740647;28;21801;-46
2022/06/14 07:35:11;;;;;;;;;;;;;;;;;;4781577;28;26804;-48
2022/06/14 07:37:36;;;;;;;;;;;;;;;;;;4769005;28;30539;-47
2022/06/14 07:40:02;;;;;;;;;;;;;;;;;;4768319;28;38113;-47
2022/06/14 07:42:27;;;;;;;;;;;;;;;;;;4740494;28;33945;-47
2022/06/14 07:44:52;;;;;;;;;;;;;;;;;;4708482;28;23143;-48
2022/06/14 07:47:17;;;;;;;;;;;;;;;;;;4767473;28;22603;-48
2022/06/14 07:49:43;;;;;;;;;;;;;;;;;;4790298;28;25249;-45
2022/06/14 07:52:08;;;;;;;;;;;;;;;;;;4776140;28;21429;-43
2022/06/14 07:54:33;;;;;;;;;;;;;;;;;;4764288;28;36171;-47
2022/06/14 07:56:58;;;;;;;;;;;;;;;;;;4781817;28;20818;-48
2022/06/14 07:59:23;;;;;;;;;;;;;;;;;;4754673;28;34397;-46
2022/06/14 08:01:48;;;;;;;;;;;;;;;;;;4700747;28;35930;-45
2022/06/14 08:04:15;;;;;;;;;;;;;;;;;;4700910;28;47231;-43
2022/06/14 08:06:40;;;;;;;;;;;;;;;;;;4722213;28;40623;-46
2022/06/14 08:09:05;;;;;;;;;;;;;;;;;;4644433;28;23482;-46
2022/06/14 08:11:30;;;;;;;;;;;;;;;;;;4464007;28;29906;-45
2022/06/14 08:13:55;;;;;;;;;;;;;;;;;;4378752;28;49316;-45
2022/06/14 08:16:20;;;;;;;;;;;;;;;;;;4584015;28;41157;-45
2022/06/14 08:18:45;;;;;;;;;;;;;;;;;;4673583;28;34778;-47
2022/06/14 08:21:10;;;;;;;;;;;;;;;;;;4699539;28;36617;-46
2022/06/14 08:23:37;;;;;;;;;;;;;;;;;;4695623;28;41549;-46
2022/06/14 08:26:03;;;;;;;;;;;;;;;;;;4658209;28;22181;-47
2022/06/14 08:28:28;;;;;;;;;;;;;;;;;;4464048;28;35636;-44
2022/06/14 08:30:53;;;;;;;;;;;;;;;;;;4468373;28;34091;-44
2022/06/14 08:33:21;;;;;;;;;;;;;;;;;;4538765;28;39061;-45
2022/06/14 08:35:46;;;;;;;;;;;;;;;;;;4693924;28;32951;-45
2022/06/14 08:38:11;;;;;;;;;;;;;;;;;;4772263;28;32557;-46
2022/06/14 08:40:36;;;;;;;;;;;;;;;;;;4775788;28;25512;-44
2022/06/14 08:43:01;;;;;;;;;;;;;;;;;;4785887;28;23363;-46
2022/06/14 08:45:26;;;;;;;;;;;;;;;;;;4786944;28;20423;-45
2022/06/14 08:47:52;;;;;;;;;;;;;;;;;;4768357;28;30602;-45
2022/06/14 08:50:17;;;;;;;;;;;;;;;;;;4735648;28;29867;-46
2022/06/14 08:52:42;;;;;;;;;;;;;;;;;;4745689;28;33022;-46
2022/06/14 08:55:09;;;;;;;;;;;;;;;;;;4738667;28;23844;-46
2022/06/14 08:57:34;;;;;;;;;;;;;;;;;;4771378;28;21478;-45
2022/06/14 08:59:59;;;;;;;;;;;;;;;;;;4762908;28;23275;-47
2022/06/14 09:02:25;;;;;;;;;;;;;;;;;;4724828;28;23692;-45
2022/06/14 09:04:50;;;;;;;;;;;;;;;;;;4742025;28;28414;-45
2022/06/14 09:07:15;;;;;;;;;;;;;;;;;;4740257;28;25367;-45
2022/06/14 09:09:40;;;;;;;;;;;;;;;;;;4753325;28;28455;-45
2022/06/14 09:12:07;;;;;;;;;;;;;;;;;;4745908;28;19927;-45
2022/06/14 09:14:32;;;;;;;;;;;;;;;;;;4759371;28;30344;-45
2022/06/14 09:16:58;;;;;;;;;;;;;;;;;;4743019;28;26567;-46
2022/06/14 09:19:23;;;;;;;;;;;;;;;;;;4731033;28;33366;-45
2022/06/14 09:21:48;;;;;;;;;;;;;;;;;;4742695;28;23517;-45
2022/06/14 09:24:14;;;;;;;;;;;;;;;;;;4735247;28;32545;-43
2022/06/14 09:26:39;;;;;;;;;;;;;;;;;;4745582;28;31268;-45
2022/06/14 09:29:04;;;;;;;;;;;;;;;;;;4740730;28;37973;-45
2022/06/14 09:31:29;;;;;;;;;;;;;;;;;;4759296;28;26350;-45
2022/06/14 09:33:54;;;;;;;;;;;;;;;;;;4789806;28;29536;-46
2022/06/14 09:36:19;;;;;;;;;;;;;;;;;;4777540;28;29154;-45
2022/06/14 09:38:44;;;;;;;;;;;;;;;;;;4779762;28;31465;-46
2022/06/14 09:41:11;;;;;;;;;;;;;;;;;;4781234;28;31172;-45
2022/06/14 09:43:36;;;;;;;;;;;;;;;;;;4790907;28;28400;-44
2022/06/14 09:46:01;;;;;;;;;;;;;;;;;;4778053;28;25696;-45
2022/06/14 09:48:26;;;;;;;;;;;;;;;;;;4770975;28;29725;-45
2022/06/14 09:50:53;;;;;;;;;;;;;;;;;;4759271;28;31604;-44
2022/06/14 09:53:18;;;;;;;;;;;;;;;;;;4771815;28;32646;-46
2022/06/14 09:55:43;;;;;;;;;;;;;;;;;;4769254;28;35994;-47
2022/06/14 09:58:08;;;;;;;;;;;;;;;;;;4750443;28;38165;-47
2022/06/14 10:00:33;;;;;;;;;;;;;;;;;;4762740;28;27694;-45
2022/06/14 10:02:58;;;;;;;;;;;;;;;;;;4756088;28;30941;-45
2022/06/14 10:05:23;;;;;;;;;;;;;;;;;;4760591;28;31664;-45
2022/06/14 10:07:49;;;;;;;;;;;;;;;;;;4740486;28;32291;-46
2022/06/14 10:10:14;;;;;;;;;;;;;;;;;;4738997;28;32050;-46
2022/06/14 10:12:42;;;;;;;;;;;;;;;;;;4739008;28;24564;-47
2022/06/14 10:15:07;;;;;;;;;;;;;;;;;;4737533;28;31365;-45
2022/06/14 10:17:32;;;;;;;;;;;;;;;;;;4739106;28;31408;-44
2022/06/14 10:19:57;;;;;;;;;;;;;;;;;;4744014;28;31488;-45
2022/06/14 10:22:22;;;;;;;;;;;;;;;;;;4747317;28;40371;-46
2022/06/14 10:24:47;;;;;;;;;;;;;;;;;;4767372;28;35278;-46
2022/06/14 10:29:56;;;;;;;;;;;;;;;;;;4775517;28;32323;-46
2022/06/14 10:32:21;;;;;;;;;;;;;;;;;;4772193;28;37718;-44
2022/06/14 10:34:47;;;;;;;;;;;;;;;;;;4755728;28;25067;-44
2022/06/14 10:37:12;;;;;;;;;;;;;;;;;;4747182;28;37672;-46
2022/06/14 10:39:37;;;;;;;;;;;;;;;;;;4740324;28;40588;-46
2022/06/14 10:42:02;;;;;;;;;;;;;;;;;;4746985;28;27439;-46
2022/06/14 10:44:27;;;;;;;;;;;;;;;;;;4752896;28;23428;-46
2022/06/14 10:46:52;;;;;;;;;;;;;;;;;;4752872;28;33048;-46
2022/06/14 10:49:18;;;;;;;;;;;;;;;;;;4777682;28;25384;-46
2022/06/14 10:51:43;;;;;;;;;;;;;;;;;;4763743;28;35446;-45
2022/06/14 10:54:08;;;;;;;;;;;;;;;;;;4757098;28;23831;-45
2022/06/14 10:56:33;;;;;;;;;;;;;;;;;;4769124;28;40265;-46
2022/06/14 10:58:58;;;;;;;;;;;;;;;;;;4762215;28;20055;-45
2022/06/14 11:01:24;;;;;;;;;;;;;;;;;;4750901;28;24531;-46
2022/06/14 11:03:50;;;;;;;;;;;;;;;;;;4756878;28;24223;-46
2022/06/14 11:06:15;;;;;;;;;;;;;;;;;;4760547;28;30764;-48
2022/06/14 11:08:40;;;;;;;;;;;;;;;;;;4794350;28;22638;-46
2022/06/14 11:11:06;;;;;;;;;;;;;;;;;;4793716;28;24701;-47
2022/06/14 11:13:31;;;;;;;;;;;;;;;;;;4770470;28;27475;-44
2022/06/14 11:15:57;;;;;;;;;;;;;;;;;;4759835;28;21823;-45
2022/06/14 11:18:22;;;;;;;;;;;;;;;;;;4757896;28;22219;-46
2022/06/14 11:20:47;;;;;;;;;;;;;;;;;;4767419;28;22646;-46
2022/06/14 11:23:12;;;;;;;;;;;;;;;;;;4769765;28;28847;-46
2022/06/14 11:25:37;;;;;;;;;;;;;;;;;;4718099;28;20055;-45
2022/06/14 11:28:02;;;;;;;;;;;;;;;;;;4677731;28;23977;-48
2022/06/14 11:30:27;;;;;;;;;;;;;;;;;;4583281;28;20509;-47
2022/06/14 11:32:53;;;;;;;;;;;;;;;;;;4479726;28;30750;-46
2022/06/14 11:35:18;;;;;;;;;;;;;;;;;;4489975;28;34142;-45
2022/06/14 11:37:43;;;;;;;;;;;;;;;;;;4574935;28;40904;-46
2022/06/14 11:40:08;;;;;;;;;;;;;;;;;;4682404;28;34358;-46
2022/06/14 11:42:33;;;;;;;;;;;;;;;;;;4739742;28;30930;-46
2022/06/14 11:44:58;;;;;;;;;;;;;;;;;;4737051;28;36759;-47
2022/06/14 11:47:23;;;;;;;;;;;;;;;;;;4769881;28;33430;-46
2022/06/14 11:49:49;;;;;;;;;;;;;;;;;;4794541;28;42756;-47
2022/06/14 11:52:16;;;;;;;;;;;;;;;;;;4754196;28;33531;-46
2022/06/14 11:54:42;;;;;;;;;;;;;;;;;;4702115;28;33302;-46
2022/06/14 11:57:07;;;;;;;;;;;;;;;;;;4744532;28;33524;-46
2022/06/14 11:59:32;;;;;;;;;;;;;;;;;;4771171;28;33809;-45
2022/06/14 12:01:57;;;;;;;;;;;;;;;;;;4676096;28;36073;-46
2022/06/14 12:04:23;;;;;;;;;;;;;;;;;;4742257;28;33306;-46
2022/06/14 12:06:48;;;;;;;;;;;;;;;;;;4735711;28;38303;-46
2022/06/14 12:09:14;;;;;;;;;;;;;;;;;;4713593;28;43626;-47
2022/06/14 12:11:39;;;;;;;;;;;;;;;;;;4713665;28;41019;-44
2022/06/14 12:14:04;;;;;;;;;;;;;;;;;;4690695;28;42016;-45
2022/06/14 12:16:29;;;;;;;;;;;;;;;;;;4708309;28;32593;-46
2022/06/14 12:18:55;;;;;;;;;;;;;;;;;;4646652;28;41738;-48
2022/06/14 12:21:20;;;;;;;;;;;;;;;;;;4575056;28;37750;-44
2022/06/14 12:23:45;;;;;;;;;;;;;;;;;;4473435;28;42722;-46
2022/06/14 12:28:54;;;;;;;;;;;;;;;;;;4654075;28;42032;-46
2022/06/14 12:31:19;;;;;;;;;;;;;;;;;;4704569;28;39617;-47
2022/06/14 12:33:44;;;;;;;;;;;;;;;;;;4686280;28;35316;-46
2022/06/14 12:36:10;;;;;;;;;;;;;;;;;;4710081;28;32473;-46
2022/06/14 12:38:35;;;;;;;;;;;;;;;;;;4741091;28;33412;-46
2022/06/14 12:41:00;;;;;;;;;;;;;;;;;;4753835;28;35700;-45
2022/06/14 12:43:25;;;;;;;;;;;;;;;;;;4720681;28;29003;-45
2022/06/14 12:45:50;;;;;;;;;;;;;;;;;;4707172;28;25139;-45
2022/06/14 12:48:17;;;;;;;;;;;;;;;;;;4731996;28;28832;-45
2022/06/14 12:50:45;;;;;;;;;;;;;;;;;;4780143;28;25539;-45
2022/06/14 12:53:10;;;;;;;;;;;;;;;;;;4767545;28;29582;-47
2022/06/14 12:55:35;;;;;;;;;;;;;;;;;;4761690;28;22059;-46
2022/06/14 12:58:00;;;;;;;;;;;;;;;;;;4787707;28;29874;-46
2022/06/14 13:00:25;;;;;;;;;;;;;;;;;;4735627;22;36056;-47
2022/06/14 13:02:50;;;;;;;;;;;;;;;;;;4714004;28;26745;-46
2022/06/14 13:05:15;;;;;;;;;;;;;;;;;;4740354;28;24166;-45
2022/06/14 13:07:41;;;;;;;;;;;;;;;;;;4733769;28;27099;-45
2022/06/14 13:10:06;;;;;;;;;;;;;;;;;;4731620;28;36494;-47
2022/06/14 13:12:31;;;;;;;;;;;;;;;;;;4674094;28;23070;-47
2022/06/14 13:14:56;;;;;;;;;;;;;;;;;;4630393;28;23405;-46
2022/06/14 13:17:21;;;;;;;;;;;;;;;;;;4730257;28;19957;-46
2022/06/14 13:19:47;;;;;;;;;;;;;;;;;;4806624;28;21651;-46
2022/06/14 13:22:12;;;;;;;;;;;;;;;;;;4865091;28;20088;-45
2022/06/14 13:24:37;;;;;;;;;;;;;;;;;;4918346;28;35739;-45
2022/06/14 13:27:02;;;;;;;;;;;;;;;;;;4938371;28;20008;-45
2022/06/14 13:29:27;;;;;;;;;;;;;;;;;;4952669;28;20554;-45
2022/06/14 13:31:53;;;;;;;;;;;;;;;;;;4944977;28;22365;-46
2022/06/14 13:34:18;;;;;;;;;;;;;;;;;;4945679;28;19921;-45
2022/06/14 13:36:43;;;;;;;;;;;;;;;;;;4948716;28;20062;-45
2022/06/14 13:39:08;;;;;;;;;;;;;;;;;;4936809;28;19924;-45
2022/06/14 13:41:33;;;;;;;;;;;;;;;;;;4957696;28;22291;-47
2022/06/14 13:43:59;;;;;;;;;;;;;;;;;;4978218;28;19969;-44
2022/06/14 13:46:24;;;;;;;;;;;;;;;;;;4994708;28;20055;-46
2022/06/14 13:48:49;;;;;;;;;;;;;;;;;;4984923;28;20345;-45
2022/06/14 13:51:14;;;;;;;;;;;;;;;;;;4952834;28;19934;-45
2022/06/14 13:53:39;;;;;;;;;;;;;;;;;;4951527;28;19931;-45
2022/06/14 13:56:04;;;;;;;;;;;;;;;;;;4980084;28;19924;-47
2022/06/14 13:58:29;;;;;;;;;;;;;;;;;;4954526;28;19924;-47
2022/06/14 14:00:54;;;;;;;;;;;;;;;;;;4917086;28;20875;-47
2022/06/14 14:03:20;;;;;;;;;;;;;;;;;;4913700;28;20487;-45
2022/06/14 14:05:45;;;;;;;;;;;;;;;;;;4926349;28;20205;-46
2022/06/14 14:08:10;;;;;;;;;;;;;;;;;;4974787;28;19920;-46
2022/06/14 14:10:35;;;;;;;;;;;;;;;;;;5004550;28;20063;-46
2022/06/14 14:13:02;;;;;;;;;;;;;;;;;;5003024;28;19920;-45
2022/06/14 14:15:27;;;;;;;;;;;;;;;;;;5006770;28;19966;-45
2022/06/14 14:17:52;;;;;;;;;;;;;;;;;;5004773;28;19921;-45
2022/06/14 14:20:17;;;;;;;;;;;;;;;;;;5028923;28;20276;-45
2022/06/14 14:22:42;;;;;;;;;;;;;;;;;;5012667;28;19912;-45
2022/06/14 14:25:07;;;;;;;;;;;;;;;;;;5029322;28;19923;-45
2022/06/14 14:27:32;;;;;;;;;;;;;;;;;;5036426;28;19921;-47
2022/06/14 14:29:58;;;;;;;;;;;;;;;;;;5042839;28;20015;-45
2022/06/14 14:32:23;;;;;;;;;;;;;;;;;;5029922;28;20011;-45
2022/06/14 14:34:48;;;;;;;;;;;;;;;;;;5030286;28;19932;-46
2022/06/14 14:37:13;;;;;;;;;;;;;;;;;;5027061;28;19920;-45
2022/06/14 14:39:38;;;;;;;;;;;;;;;;;;5037144;28;20065;-46
2022/06/14 14:42:03;;;;;;;;;;;;;;;;;;5038396;28;20001;-45
2022/06/14 14:44:28;;;;;;;;;;;;;;;;;;5043894;28;19913;-45
2022/06/14 14:46:54;;;;;;;;;;;;;;;;;;5037780;28;19920;-45
2022/06/14 14:49:19;;;;;;;;;;;;;;;;;;5034217;28;19921;-42
2022/06/14 14:51:45;;;;;;;;;;;;;;;;;;4996528;28;19994;-45
2022/06/14 14:54:11;;;;;;;;;;;;;;;;;;5014866;28;19928;-45
2022/06/14 14:56:36;;;;;;;;;;;;;;;;;;5038547;28;19921;-45
2022/06/14 14:59:01;;;;;;;;;;;;;;;;;;5059438;28;19920;-45
2022/06/14 15:06:54;;;;;;;;;;;;;;;;;;5059003;28;20339;-45
2022/06/14 15:09:19;;;;;;;;;;;;;;;;;;5066103;28;20282;-45
2022/06/14 15:11:44;;;;;;;;;;;;;;;;;;5059435;28;19925;-45
2022/06/14 15:14:09;;;;;;;;;;;;;;;;;;5054140;28;19916;-45
2022/06/14 15:16:35;;;;;;;;;;;;;;;;;;5070899;28;19935;-47
2022/06/14 15:21:44;;;;;;;;;;;;;;;;;;5068677;28;19936;-44
2022/06/14 15:24:10;;;;;;;;;;;;;;;;;;5070430;28;20371;-46
2022/06/14 15:26:35;;;;;;;;;;;;;;;;;;5066018;28;19999;-46
2022/06/14 15:29:00;;;;;;;;;;;;;;;;;;5069535;28;20405;-44
2022/06/14 15:31:25;;;;;;;;;;;;;;;;;;5074504;28;19916;-44
2022/06/14 15:33:51;;;;;;;;;;;;;;;;;;5066062;28;20286;-45
2022/06/14 15:36:16;;;;;;;;;;;;;;;;;;5068715;28;19963;-44
2022/06/14 15:38:42;;;;;;;;;;;;;;;;;;5066410;28;19913;-46
2022/06/14 15:41:07;;;;;;;;;;;;;;;;;;5073637;28;19909;-46
2022/06/14 15:43:33;;;;;;;;;;;;;;;;;;5076503;28;19920;-45
2022/06/14 15:45:58;;;;;;;;;;;;;;;;;;5064077;28;20232;-46
2022/06/14 15:48:26;;;;;;;;;;;;;;;;;;5066133;28;19913;-45
2022/06/14 15:50:51;;;;;;;;;;;;;;;;;;5070700;28;19920;-45
2022/06/14 15:53:16;;;;;;;;;;;;;;;;;;5075040;28;19919;-46
2022/06/14 15:55:41;;;;;;;;;;;;;;;;;;5077513;28;19976;-46
2022/06/14 15:58:07;;;;;;;;;;;;;;;;;;5069871;28;19912;-46
2022/06/14 16:00:32;;;;;;;;;;;;;;;;;;5058608;28;19978;-45
2022/06/14 16:03:00;;;;;;;;;;;;;;;;;;5069035;28;19958;-47
2022/06/14 16:05:25;;;;;;;;;;;;;;;;;;5060591;28;19916;-42
2022/06/14 16:07:52;;;;;;;;;;;;;;;;;;5064707;28;20007;-43
2022/06/14 16:10:19;;;;;;;;;;;;;;;;;;5061064;28;19924;-44
2022/06/14 16:12:44;;;;;;;;;;;;;;;;;;5055503;28;19913;-45
2022/06/14 16:15:11;;;;;;;;;;;;;;;;;;5055547;28;20331;-44
2022/06/14 16:17:36;;;;;;;;;;;;;;;;;;5055409;28;19908;-43
2022/06/14 16:20:02;;;;;;;;;;;;;;;;;;5055360;28;20302;-43
2022/06/14 16:22:30;;;;;;;;;;;;;;;;;;5054726;28;19909;-43
2022/06/14 16:24:55;;;;;;;;;;;;;;;;;;5055319;28;19909;-44
2022/06/14 16:27:21;;;;;;;;;;;;;;;;;;5055353;28;19916;-43
2022/06/14 16:29:49;;;;;;;;;;;;;;;;;;5055206;28;19915;-43
2022/06/14 16:32:14;;;;;;;;;;;;;;;;;;5055245;28;20315;-44
2022/06/14 16:34:42;;;;;;;;;;;;;;;;;;5055170;28;19947;-43
2022/06/14 16:37:09;;;;;;;;;;;;;;;;;;5055364;28;19952;-43
2022/06/14 16:39:36;;;;;;;;;;;;;;;;;;5055026;28;19909;-43
2022/06/14 16:42:02;;;;;;;;;;;;;;;;;;5054993;28;19912;-43
2022/06/14 16:44:27;;;;;;;;;;;;;;;;;;5054911;28;19916;-45
2022/06/14 16:46:52;;;;;;;;;;;;;;;;;;5054893;28;19909;-43
2022/06/14 16:49:18;;;;;;;;;;;;;;;;;;5054958;28;19909;-43
2022/06/14 16:51:44;;;;;;;;;;;;;;;;;;5054980;28;19966;-43
2022/06/14 16:54:11;;;;;;;;;;;;;;;;;;5054974;28;20371;-43